sensor_id;sensor_type;location;lat;lon;timestamp;P1;durP1;ratioP1;P2;durP2;ratioP2
29984;SDS011;17387;42.690;23.328;2023-02-18T00:01:30;39.47;;;20.85;;
29984;SDS011;17387;42.690;23.328;2023-02-18T00:03:56;43.28;;;21.95;;
29984;SDS011;17387;42.690;23.328;2023-02-18T00:06:23;48.08;;;21.90;;
29984;SDS011;17387;42.690;23.328;2023-02-18T00:08:49;43.45;;;20.60;;
29984;SDS011;17387;42.690;23.328;2023-02-18T00:11:14;43.65;;;21.45;;
29984;SDS011;17387;42.690;23.328;2023-02-18T00:13:40;46.25;;;22.00;;
29984;SDS011;17387;42.690;23.328;2023-02-18T00:16:06;40.78;;;21.33;;
29984;SDS011;17387;42.690;23.328;2023-02-18T00:18:32;49.85;;;21.77;;
29984;SDS011;17387;42.690;23.328;2023-02-18T00:20:58;48.88;;;20.88;;
29984;SDS011;17387;42.690;23.328;2023-02-18T00:23:23;49.22;;;22.10;;
29984;SDS011;17387;42.690;23.328;2023-02-18T00:25:48;47.65;;;22.42;;
29984;SDS011;17387;42.690;23.328;2023-02-18T00:28:14;48.90;;;20.98;;
29984;SDS011;17387;42.690;23.328;2023-02-18T00:30:40;48.80;;;22.17;;
29984;SDS011;17387;42.690;23.328;2023-02-18T00:33:05;43.72;;;21.55;;
29984;SDS011;17387;42.690;23.328;2023-02-18T00:35:30;43.67;;;20.70;;
29984;SDS011;17387;42.690;23.328;2023-02-18T00:37:56;46.30;;;20.67;;
29984;SDS011;17387;42.690;23.328;2023-02-18T00:40:21;41.28;;;20.50;;
29984;SDS011;17387;42.690;23.328;2023-02-18T00:42:46;46.35;;;21.85;;
29984;SDS011;17387;42.690;23.328;2023-02-18T00:45:12;41.65;;;20.90;;
29984;SDS011;17387;42.690;23.328;2023-02-18T00:47:37;43.85;;;20.48;;
29984;SDS011;17387;42.690;23.328;2023-02-18T00:50:02;49.47;;;20.77;;
29984;SDS011;17387;42.690;23.328;2023-02-18T00:52:27;49.58;;;21.48;;
29984;SDS011;17387;42.690;23.328;2023-02-18T00:54:53;41.53;;;18.30;;
29984;SDS011;17387;42.690;23.328;2023-02-18T00:57:21;46.67;;;19.50;;
29984;SDS011;17387;42.690;23.328;2023-02-18T00:59:46;42.60;;;20.23;;
29984;SDS011;17387;42.690;23.328;2023-02-18T01:02:15;46.50;;;21.48;;
29984;SDS011;17387;42.690;23.328;2023-02-18T01:04:49;41.33;;;20.95;;
29984;SDS011;17387;42.690;23.328;2023-02-18T01:07:14;40.22;;;18.13;;
29984;SDS011;17387;42.690;23.328;2023-02-18T01:12:47;48.15;;;21.17;;
29984;SDS011;17387;42.690;23.328;2023-02-18T01:15:16;38.78;;;18.27;;
29984;SDS011;17387;42.690;23.328;2023-02-18T01:17:42;33.78;;;16.80;;
29984;SDS011;17387;42.690;23.328;2023-02-18T01:20:08;41.35;;;19.98;;
29984;SDS011;17387;42.690;23.328;2023-02-18T01:22:34;44.22;;;19.83;;
29984;SDS011;17387;42.690;23.328;2023-02-18T01:24:59;44.58;;;21.17;;
29984;SDS011;17387;42.690;23.328;2023-02-18T01:27:24;45.88;;;20.73;;
29984;SDS011;17387;42.690;23.328;2023-02-18T01:29:49;41.50;;;18.35;;
29984;SDS011;17387;42.690;23.328;2023-02-18T01:32:15;35.08;;;17.20;;
29984;SDS011;17387;42.690;23.328;2023-02-18T01:34:40;42.35;;;19.42;;
29984;SDS011;17387;42.690;23.328;2023-02-18T01:37:05;42.03;;;20.25;;
29984;SDS011;17387;42.690;23.328;2023-02-18T01:39:31;40.25;;;19.90;;
29984;SDS011;17387;42.690;23.328;2023-02-18T01:41:56;44.60;;;20.05;;
29984;SDS011;17387;42.690;23.328;2023-02-18T01:44:23;42.28;;;19.70;;
29984;SDS011;17387;42.690;23.328;2023-02-18T01:46:48;42.50;;;19.58;;
29984;SDS011;17387;42.690;23.328;2023-02-18T01:49:20;41.33;;;20.10;;
29984;SDS011;17387;42.690;23.328;2023-02-18T01:51:48;47.88;;;21.90;;
29984;SDS011;17387;42.690;23.328;2023-02-18T01:54:18;37.97;;;19.45;;
29984;SDS011;17387;42.690;23.328;2023-02-18T01:56:59;39.55;;;20.20;;
29984;SDS011;17387;42.690;23.328;2023-02-18T01:59:27;41.88;;;19.73;;
29984;SDS011;17387;42.690;23.328;2023-02-18T02:01:54;40.47;;;20.10;;
29984;SDS011;17387;42.690;23.328;2023-02-18T02:04:20;41.20;;;19.58;;
29984;SDS011;17387;42.690;23.328;2023-02-18T02:06:46;40.88;;;20.42;;
29984;SDS011;17387;42.690;23.328;2023-02-18T02:09:12;39.20;;;19.27;;
29984;SDS011;17387;42.690;23.328;2023-02-18T02:11:52;36.55;;;19.80;;
29984;SDS011;17387;42.690;23.328;2023-02-18T02:19:21;37.55;;;17.67;;
29984;SDS011;17387;42.690;23.328;2023-02-18T02:29:21;38.78;;;16.25;;
29984;SDS011;17387;42.690;23.328;2023-02-18T02:42:25;35.20;;;16.67;;
29984;SDS011;17387;42.690;23.328;2023-02-18T02:45:01;35.45;;;17.67;;
29984;SDS011;17387;42.690;23.328;2023-02-18T02:54:51;33.97;;;16.35;;
29984;SDS011;17387;42.690;23.328;2023-02-18T02:59:44;39.75;;;18.13;;
29984;SDS011;17387;42.690;23.328;2023-02-18T03:12:46;33.10;;;16.00;;
29984;SDS011;17387;42.690;23.328;2023-02-18T03:20:09;36.30;;;16.50;;
29984;SDS011;17387;42.690;23.328;2023-02-18T03:22:41;35.47;;;16.85;;
29984;SDS011;17387;42.690;23.328;2023-02-18T03:25:08;35.63;;;17.42;;
29984;SDS011;17387;42.690;23.328;2023-02-18T03:27:37;36.42;;;16.95;;
29984;SDS011;17387;42.690;23.328;2023-02-18T03:30:04;36.53;;;17.08;;
29984;SDS011;17387;42.690;23.328;2023-02-18T03:32:32;37.53;;;18.17;;
29984;SDS011;17387;42.690;23.328;2023-02-18T03:35:00;43.72;;;20.58;;
29984;SDS011;17387;42.690;23.328;2023-02-18T03:37:26;46.65;;;22.35;;
29984;SDS011;17387;42.690;23.328;2023-02-18T03:39:53;52.97;;;23.77;;
29984;SDS011;17387;42.690;23.328;2023-02-18T03:42:19;58.10;;;28.00;;
29984;SDS011;17387;42.690;23.328;2023-02-18T03:44:49;65.00;;;28.88;;
29984;SDS011;17387;42.690;23.328;2023-02-18T03:47:14;61.05;;;27.73;;
29984;SDS011;17387;42.690;23.328;2023-02-18T03:49:39;58.05;;;26.92;;
29984;SDS011;17387;42.690;23.328;2023-02-18T03:52:05;58.70;;;27.60;;
29984;SDS011;17387;42.690;23.328;2023-02-18T03:54:30;58.40;;;27.55;;
29984;SDS011;17387;42.690;23.328;2023-02-18T03:56:56;54.53;;;26.88;;
29984;SDS011;17387;42.690;23.328;2023-02-18T03:59:21;59.38;;;25.85;;
29984;SDS011;17387;42.690;23.328;2023-02-18T04:01:46;51.63;;;26.20;;
29984;SDS011;17387;42.690;23.328;2023-02-18T04:04:11;54.55;;;24.23;;
29984;SDS011;17387;42.690;23.328;2023-02-18T04:06:37;52.92;;;26.25;;
29984;SDS011;17387;42.690;23.328;2023-02-18T04:09:02;56.17;;;27.90;;
29984;SDS011;17387;42.690;23.328;2023-02-18T04:11:32;48.03;;;25.15;;
29984;SDS011;17387;42.690;23.328;2023-02-18T04:14:00;55.17;;;26.27;;
29984;SDS011;17387;42.690;23.328;2023-02-18T04:16:25;53.92;;;24.65;;
29984;SDS011;17387;42.690;23.328;2023-02-18T04:18:50;53.10;;;24.63;;
29984;SDS011;17387;42.690;23.328;2023-02-18T04:21:16;48.90;;;23.90;;
29984;SDS011;17387;42.690;23.328;2023-02-18T04:23:41;53.38;;;26.02;;
29984;SDS011;17387;42.690;23.328;2023-02-18T04:26:06;53.22;;;24.65;;
29984;SDS011;17387;42.690;23.328;2023-02-18T04:28:32;58.28;;;25.17;;
29984;SDS011;17387;42.690;23.328;2023-02-18T04:30:57;56.60;;;24.90;;
29984;SDS011;17387;42.690;23.328;2023-02-18T04:33:22;50.67;;;23.23;;
29984;SDS011;17387;42.690;23.328;2023-02-18T04:35:47;46.17;;;22.15;;
29984;SDS011;17387;42.690;23.328;2023-02-18T04:38:13;47.78;;;23.25;;
29984;SDS011;17387;42.690;23.328;2023-02-18T04:40:38;46.90;;;23.27;;
29984;SDS011;17387;42.690;23.328;2023-02-18T04:43:03;50.83;;;23.77;;
29984;SDS011;17387;42.690;23.328;2023-02-18T04:45:29;48.40;;;23.65;;
29984;SDS011;17387;42.690;23.328;2023-02-18T04:47:54;49.10;;;22.92;;
29984;SDS011;17387;42.690;23.328;2023-02-18T04:50:20;49.53;;;22.98;;
29984;SDS011;17387;42.690;23.328;2023-02-18T04:52:45;49.17;;;24.10;;
29984;SDS011;17387;42.690;23.328;2023-02-18T04:55:28;50.00;;;23.05;;
29984;SDS011;17387;42.690;23.328;2023-02-18T04:57:53;48.22;;;23.65;;
29984;SDS011;17387;42.690;23.328;2023-02-18T05:00:19;49.70;;;23.88;;
29984;SDS011;17387;42.690;23.328;2023-02-18T05:02:44;51.55;;;23.58;;
29984;SDS011;17387;42.690;23.328;2023-02-18T05:05:10;50.88;;;24.80;;
29984;SDS011;17387;42.690;23.328;2023-02-18T05:07:35;53.50;;;25.02;;
29984;SDS011;17387;42.690;23.328;2023-02-18T05:10:00;49.90;;;24.50;;
29984;SDS011;17387;42.690;23.328;2023-02-18T05:12:26;44.95;;;23.02;;
29984;SDS011;17387;42.690;23.328;2023-02-18T05:14:56;49.45;;;24.40;;
29984;SDS011;17387;42.690;23.328;2023-02-18T05:17:27;48.88;;;23.63;;
29984;SDS011;17387;42.690;23.328;2023-02-18T05:19:52;45.67;;;24.20;;
29984;SDS011;17387;42.690;23.328;2023-02-18T05:22:18;53.58;;;25.02;;
29984;SDS011;17387;42.690;23.328;2023-02-18T05:24:43;51.58;;;23.40;;
29984;SDS011;17387;42.690;23.328;2023-02-18T05:27:08;47.45;;;23.80;;
29984;SDS011;17387;42.690;23.328;2023-02-18T05:29:37;47.22;;;22.92;;
29984;SDS011;17387;42.690;23.328;2023-02-18T05:32:02;45.58;;;20.88;;
29984;SDS011;17387;42.690;23.328;2023-02-18T05:34:27;42.80;;;22.58;;
29984;SDS011;17387;42.690;23.328;2023-02-18T05:36:52;45.63;;;21.23;;
29984;SDS011;17387;42.690;23.328;2023-02-18T05:39:18;42.95;;;21.55;;
29984;SDS011;17387;42.690;23.328;2023-02-18T05:41:43;47.42;;;20.63;;
29984;SDS011;17387;42.690;23.328;2023-02-18T05:44:08;46.40;;;20.13;;
29984;SDS011;17387;42.690;23.328;2023-02-18T05:46:52;43.53;;;20.35;;
29984;SDS011;17387;42.690;23.328;2023-02-18T05:49:17;40.78;;;21.17;;
29984;SDS011;17387;42.690;23.328;2023-02-18T05:51:43;38.33;;;19.90;;
29984;SDS011;17387;42.690;23.328;2023-02-18T05:54:08;48.65;;;21.00;;
29984;SDS011;17387;42.690;23.328;2023-02-18T05:56:33;44.13;;;20.65;;
29984;SDS011;17387;42.690;23.328;2023-02-18T05:58:58;37.25;;;19.02;;
29984;SDS011;17387;42.690;23.328;2023-02-18T06:01:24;41.35;;;19.38;;
29984;SDS011;17387;42.690;23.328;2023-02-18T06:03:49;37.60;;;19.27;;
29984;SDS011;17387;42.690;23.328;2023-02-18T06:06:14;39.03;;;20.10;;
29984;SDS011;17387;42.690;23.328;2023-02-18T06:08:40;43.97;;;19.63;;
29984;SDS011;17387;42.690;23.328;2023-02-18T06:11:05;49.80;;;20.80;;
29984;SDS011;17387;42.690;23.328;2023-02-18T06:13:30;46.55;;;21.70;;
29984;SDS011;17387;42.690;23.328;2023-02-18T06:15:56;43.55;;;19.58;;
29984;SDS011;17387;42.690;23.328;2023-02-18T06:18:21;37.63;;;19.90;;
29984;SDS011;17387;42.690;23.328;2023-02-18T06:20:47;43.85;;;21.35;;
29984;SDS011;17387;42.690;23.328;2023-02-18T06:23:12;41.15;;;20.92;;
29984;SDS011;17387;42.690;23.328;2023-02-18T06:25:38;47.80;;;19.85;;
29984;SDS011;17387;42.690;23.328;2023-02-18T06:28:03;39.95;;;18.52;;
29984;SDS011;17387;42.690;23.328;2023-02-18T06:30:29;33.75;;;17.75;;
29984;SDS011;17387;42.690;23.328;2023-02-18T06:32:54;39.75;;;17.73;;
29984;SDS011;17387;42.690;23.328;2023-02-18T06:35:19;34.08;;;17.10;;
29984;SDS011;17387;42.690;23.328;2023-02-18T06:37:44;39.15;;;17.83;;
29984;SDS011;17387;42.690;23.328;2023-02-18T06:40:10;37.00;;;17.98;;
29984;SDS011;17387;42.690;23.328;2023-02-18T06:42:35;35.83;;;16.58;;
29984;SDS011;17387;42.690;23.328;2023-02-18T06:45:01;39.45;;;22.65;;
29984;SDS011;17387;42.690;23.328;2023-02-18T06:47:26;33.22;;;16.33;;
29984;SDS011;17387;42.690;23.328;2023-02-18T06:49:51;30.67;;;15.88;;
29984;SDS011;17387;42.690;23.328;2023-02-18T06:52:17;34.90;;;16.65;;
29984;SDS011;17387;42.690;23.328;2023-02-18T06:54:44;35.67;;;17.02;;
29984;SDS011;17387;42.690;23.328;2023-02-18T06:57:15;33.88;;;17.10;;
29984;SDS011;17387;42.690;23.328;2023-02-18T06:59:41;35.72;;;17.30;;
29984;SDS011;17387;42.690;23.328;2023-02-18T07:05:09;34.50;;;16.77;;
29984;SDS011;17387;42.690;23.328;2023-02-18T07:07:35;40.42;;;16.30;;
29984;SDS011;17387;42.690;23.328;2023-02-18T07:10:00;35.90;;;16.83;;
29984;SDS011;17387;42.690;23.328;2023-02-18T07:12:25;33.42;;;16.88;;
29984;SDS011;17387;42.690;23.328;2023-02-18T07:14:51;38.60;;;17.20;;
29984;SDS011;17387;42.690;23.328;2023-02-18T07:17:16;38.70;;;16.65;;
29984;SDS011;17387;42.690;23.328;2023-02-18T07:19:42;34.88;;;16.30;;
29984;SDS011;17387;42.690;23.328;2023-02-18T07:22:13;31.13;;;15.65;;
29984;SDS011;17387;42.690;23.328;2023-02-18T07:24:38;38.80;;;17.15;;
29984;SDS011;17387;42.690;23.328;2023-02-18T07:27:03;35.53;;;16.42;;
29984;SDS011;17387;42.690;23.328;2023-02-18T07:29:29;33.03;;;17.23;;
29984;SDS011;17387;42.690;23.328;2023-02-18T07:31:54;31.08;;;16.00;;
29984;SDS011;17387;42.690;23.328;2023-02-18T07:34:19;38.22;;;17.33;;
29984;SDS011;17387;42.690;23.328;2023-02-18T07:36:47;40.28;;;17.83;;
29984;SDS011;17387;42.690;23.328;2023-02-18T07:39:15;34.90;;;17.52;;
29984;SDS011;17387;42.690;23.328;2023-02-18T07:41:44;40.47;;;18.58;;
29984;SDS011;17387;42.690;23.328;2023-02-18T07:44:10;44.55;;;22.38;;
29984;SDS011;17387;42.690;23.328;2023-02-18T07:46:38;50.80;;;24.95;;
29984;SDS011;17387;42.690;23.328;2023-02-18T07:49:08;55.33;;;26.95;;
29984;SDS011;17387;42.690;23.328;2023-02-18T07:51:34;51.15;;;24.42;;
29984;SDS011;17387;42.690;23.328;2023-02-18T07:54:04;49.78;;;23.33;;
29984;SDS011;17387;42.690;23.328;2023-02-18T07:56:29;48.42;;;23.77;;
29984;SDS011;17387;42.690;23.328;2023-02-18T07:58:55;53.65;;;23.13;;
29984;SDS011;17387;42.690;23.328;2023-02-18T08:01:20;48.17;;;23.95;;
29984;SDS011;17387;42.690;23.328;2023-02-18T08:03:45;52.15;;;25.30;;
29984;SDS011;17387;42.690;23.328;2023-02-18T08:06:19;44.78;;;21.45;;
29984;SDS011;17387;42.690;23.328;2023-02-18T08:08:45;49.53;;;20.00;;
29984;SDS011;17387;42.690;23.328;2023-02-18T08:11:10;42.78;;;18.58;;
29984;SDS011;17387;42.690;23.328;2023-02-18T08:13:35;45.70;;;19.63;;
29984;SDS011;17387;42.690;23.328;2023-02-18T08:16:03;39.63;;;18.52;;
29984;SDS011;17387;42.690;23.328;2023-02-18T08:18:28;47.63;;;19.42;;
29984;SDS011;17387;42.690;23.328;2023-02-18T08:20:54;37.55;;;18.10;;
29984;SDS011;17387;42.690;23.328;2023-02-18T08:23:20;47.83;;;17.90;;
29984;SDS011;17387;42.690;23.328;2023-02-18T08:25:46;33.50;;;17.08;;
29984;SDS011;17387;42.690;23.328;2023-02-18T08:28:11;30.48;;;16.15;;
29984;SDS011;17387;42.690;23.328;2023-02-18T08:30:37;36.55;;;16.92;;
29984;SDS011;17387;42.690;23.328;2023-02-18T08:33:02;36.67;;;17.77;;
29984;SDS011;17387;42.690;23.328;2023-02-18T08:35:27;36.22;;;17.85;;
29984;SDS011;17387;42.690;23.328;2023-02-18T08:37:53;41.65;;;19.50;;
29984;SDS011;17387;42.690;23.328;2023-02-18T08:40:18;39.55;;;19.55;;
29984;SDS011;17387;42.690;23.328;2023-02-18T08:42:44;47.53;;;19.10;;
29984;SDS011;17387;42.690;23.328;2023-02-18T08:45:09;43.22;;;18.98;;
29984;SDS011;17387;42.690;23.328;2023-02-18T08:47:37;36.67;;;18.35;;
29984;SDS011;17387;42.690;23.328;2023-02-18T08:50:03;41.15;;;18.77;;
29984;SDS011;17387;42.690;23.328;2023-02-18T08:52:28;40.13;;;19.70;;
29984;SDS011;17387;42.690;23.328;2023-02-18T08:54:53;44.25;;;19.13;;
29984;SDS011;17387;42.690;23.328;2023-02-18T08:57:19;43.28;;;21.02;;
29984;SDS011;17387;42.690;23.328;2023-02-18T08:59:44;48.22;;;21.50;;
29984;SDS011;17387;42.690;23.328;2023-02-18T09:02:31;37.28;;;19.55;;
29984;SDS011;17387;42.690;23.328;2023-02-18T09:04:55;45.95;;;22.10;;
29984;SDS011;17387;42.690;23.328;2023-02-18T09:07:27;43.22;;;20.67;;
29984;SDS011;17387;42.690;23.328;2023-02-18T09:09:52;42.88;;;20.42;;
29984;SDS011;17387;42.690;23.328;2023-02-18T09:12:18;47.40;;;19.83;;
29984;SDS011;17387;42.690;23.328;2023-02-18T09:14:43;48.72;;;21.55;;
29984;SDS011;17387;42.690;23.328;2023-02-18T09:17:10;39.13;;;21.00;;
29984;SDS011;17387;42.690;23.328;2023-02-18T09:19:36;58.22;;;22.10;;
29984;SDS011;17387;42.690;23.328;2023-02-18T09:22:01;48.03;;;21.65;;
29984;SDS011;17387;42.690;23.328;2023-02-18T09:24:26;41.88;;;19.85;;
29984;SDS011;17387;42.690;23.328;2023-02-18T09:26:52;57.60;;;24.65;;
29984;SDS011;17387;42.690;23.328;2023-02-18T09:29:18;45.67;;;19.23;;
29984;SDS011;17387;42.690;23.328;2023-02-18T09:31:44;37.55;;;18.40;;
29984;SDS011;17387;42.690;23.328;2023-02-18T09:34:09;39.60;;;18.40;;
29984;SDS011;17387;42.690;23.328;2023-02-18T09:36:37;38.85;;;18.73;;
29984;SDS011;17387;42.690;23.328;2023-02-18T09:39:03;40.58;;;19.65;;
29984;SDS011;17387;42.690;23.328;2023-02-18T09:41:40;37.70;;;17.15;;
29984;SDS011;17387;42.690;23.328;2023-02-18T09:44:15;37.83;;;17.20;;
29984;SDS011;17387;42.690;23.328;2023-02-18T09:46:47;37.58;;;17.48;;
29984;SDS011;17387;42.690;23.328;2023-02-18T09:49:28;34.85;;;17.02;;
29984;SDS011;17387;42.690;23.328;2023-02-18T09:52:00;46.38;;;23.77;;
29984;SDS011;17387;42.690;23.328;2023-02-18T09:54:27;36.10;;;17.60;;
29984;SDS011;17387;42.690;23.328;2023-02-18T09:56:52;37.33;;;17.17;;
29984;SDS011;17387;42.690;23.328;2023-02-18T09:59:18;27.92;;;14.35;;
29984;SDS011;17387;42.690;23.328;2023-02-18T10:01:44;26.08;;;11.80;;
29984;SDS011;17387;42.690;23.328;2023-02-18T10:06:36;36.75;;;18.13;;
29984;SDS011;17387;42.690;23.328;2023-02-18T10:09:04;28.35;;;15.52;;
29984;SDS011;17387;42.690;23.328;2023-02-18T10:11:40;35.33;;;15.07;;
29984;SDS011;17387;42.690;23.328;2023-02-18T10:14:12;37.85;;;16.27;;
29984;SDS011;17387;42.690;23.328;2023-02-18T10:16:38;49.30;;;22.17;;
29984;SDS011;17387;42.690;23.328;2023-02-18T10:19:05;26.35;;;15.13;;
29984;SDS011;17387;42.690;23.328;2023-02-18T10:21:39;38.15;;;18.95;;
29984;SDS011;17387;42.690;23.328;2023-02-18T10:26:34;33.78;;;16.35;;
29984;SDS011;17387;42.690;23.328;2023-02-18T10:28:59;44.30;;;21.85;;
29984;SDS011;17387;42.690;23.328;2023-02-18T10:31:44;50.40;;;24.60;;
29984;SDS011;17387;42.690;23.328;2023-02-18T10:36:46;36.13;;;17.27;;
29984;SDS011;17387;42.690;23.328;2023-02-18T10:41:45;17.58;;;9.82;;
29984;SDS011;17387;42.690;23.328;2023-02-18T10:49:56;16.20;;;7.38;;
29984;SDS011;17387;42.690;23.328;2023-02-18T10:52:22;28.65;;;12.73;;
29984;SDS011;17387;42.690;23.328;2023-02-18T10:57:17;39.90;;;18.30;;
29984;SDS011;17387;42.690;23.328;2023-02-18T10:59:45;27.00;;;13.50;;
29984;SDS011;17387;42.690;23.328;2023-02-18T11:02:17;22.20;;;10.45;;
29984;SDS011;17387;42.690;23.328;2023-02-18T11:04:44;26.33;;;11.40;;
29984;SDS011;17387;42.690;23.328;2023-02-18T11:07:18;54.53;;;26.88;;
29984;SDS011;17387;42.690;23.328;2023-02-18T11:09:46;15.68;;;9.18;;
29984;SDS011;17387;42.690;23.328;2023-02-18T11:12:14;15.45;;;7.90;;
29984;SDS011;17387;42.690;23.328;2023-02-18T11:14:43;16.40;;;8.10;;
29984;SDS011;17387;42.690;23.328;2023-02-18T11:17:12;10.15;;;5.30;;
29984;SDS011;17387;42.690;23.328;2023-02-18T11:19:39;16.27;;;5.35;;
29984;SDS011;17387;42.690;23.328;2023-02-18T11:22:06;16.52;;;6.22;;
29984;SDS011;17387;42.690;23.328;2023-02-18T11:24:35;11.85;;;6.35;;
29984;SDS011;17387;42.690;23.328;2023-02-18T11:27:06;13.05;;;6.15;;
29984;SDS011;17387;42.690;23.328;2023-02-18T11:29:32;11.52;;;5.68;;
29984;SDS011;17387;42.690;23.328;2023-02-18T11:31:58;14.73;;;5.10;;
29984;SDS011;17387;42.690;23.328;2023-02-18T11:34:28;12.85;;;6.25;;
29984;SDS011;17387;42.690;23.328;2023-02-18T11:36:54;14.18;;;5.80;;
29984;SDS011;17387;42.690;23.328;2023-02-18T11:39:22;10.07;;;5.57;;
29984;SDS011;17387;42.690;23.328;2023-02-18T11:42:01;12.05;;;6.28;;
29984;SDS011;17387;42.690;23.328;2023-02-18T11:49:36;11.15;;;7.10;;
29984;SDS011;17387;42.690;23.328;2023-02-18T11:52:03;14.52;;;6.63;;
29984;SDS011;17387;42.690;23.328;2023-02-18T11:54:29;12.27;;;6.45;;
29984;SDS011;17387;42.690;23.328;2023-02-18T11:59:21;11.60;;;5.25;;
29984;SDS011;17387;42.690;23.328;2023-02-18T12:01:49;14.57;;;7.00;;
29984;SDS011;17387;42.690;23.328;2023-02-18T12:04:19;10.82;;;5.80;;
29984;SDS011;17387;42.690;23.328;2023-02-18T12:09:21;11.95;;;6.05;;
29984;SDS011;17387;42.690;23.328;2023-02-18T12:11:50;13.20;;;5.47;;
29984;SDS011;17387;42.690;23.328;2023-02-18T12:14:17;12.43;;;6.03;;
29984;SDS011;17387;42.690;23.328;2023-02-18T12:22:21;12.63;;;6.10;;
29984;SDS011;17387;42.690;23.328;2023-02-18T12:29:53;9.90;;;5.68;;
29984;SDS011;17387;42.690;23.328;2023-02-18T12:43:57;10.60;;;6.32;;
29984;SDS011;17387;42.690;23.328;2023-02-18T12:51:19;10.77;;;6.25;;
29984;SDS011;17387;42.690;23.328;2023-02-18T13:01:32;8.23;;;4.82;;
29984;SDS011;17387;42.690;23.328;2023-02-18T13:04:11;12.18;;;5.63;;
29984;SDS011;17387;42.690;23.328;2023-02-18T13:06:46;14.40;;;6.40;;
29984;SDS011;17387;42.690;23.328;2023-02-18T13:16:43;10.05;;;5.55;;
29984;SDS011;17387;42.690;23.328;2023-02-18T13:19:26;12.98;;;5.40;;
29984;SDS011;17387;42.690;23.328;2023-02-18T13:21:52;10.15;;;5.57;;
29984;SDS011;17387;42.690;23.328;2023-02-18T13:27:02;10.50;;;5.43;;
29984;SDS011;17387;42.690;23.328;2023-02-18T13:29:38;11.30;;;5.93;;
29984;SDS011;17387;42.690;23.328;2023-02-18T13:32:16;10.75;;;5.55;;
29984;SDS011;17387;42.690;23.328;2023-02-18T13:34:47;13.02;;;6.25;;
29984;SDS011;17387;42.690;23.328;2023-02-18T13:37:24;12.00;;;5.93;;
29984;SDS011;17387;42.690;23.328;2023-02-18T13:39:55;11.43;;;5.80;;
29984;SDS011;17387;42.690;23.328;2023-02-18T13:42:23;12.60;;;5.47;;
29984;SDS011;17387;42.690;23.328;2023-02-18T13:52:47;10.40;;;5.45;;
29984;SDS011;17387;42.690;23.328;2023-02-18T13:58:11;9.30;;;5.38;;
29984;SDS011;17387;42.690;23.328;2023-02-18T14:00:38;10.23;;;5.70;;
29984;SDS011;17387;42.690;23.328;2023-02-18T14:05:48;11.50;;;5.70;;
29984;SDS011;17387;42.690;23.328;2023-02-18T14:08:35;11.05;;;5.43;;
29984;SDS011;17387;42.690;23.328;2023-02-18T14:13:41;15.10;;;6.28;;
29984;SDS011;17387;42.690;23.328;2023-02-18T14:16:07;12.35;;;5.78;;
29984;SDS011;17387;42.690;23.328;2023-02-18T14:18:53;12.32;;;5.03;;
29984;SDS011;17387;42.690;23.328;2023-02-18T14:21:20;14.50;;;5.93;;
29984;SDS011;17387;42.690;23.328;2023-02-18T14:26:22;13.40;;;5.30;;
29984;SDS011;17387;42.690;23.328;2023-02-18T14:34:04;9.77;;;5.30;;
29984;SDS011;17387;42.690;23.328;2023-02-18T14:36:32;10.07;;;5.53;;
29984;SDS011;17387;42.690;23.328;2023-02-18T14:41:48;9.80;;;5.53;;
29984;SDS011;17387;42.690;23.328;2023-02-18T14:51:46;16.30;;;6.47;;
29984;SDS011;17387;42.690;23.328;2023-02-18T14:54:16;14.45;;;5.55;;
29984;SDS011;17387;42.690;23.328;2023-02-18T14:56:51;12.23;;;6.13;;
29984;SDS011;17387;42.690;23.328;2023-02-18T14:59:17;9.52;;;5.50;;
29984;SDS011;17387;42.690;23.328;2023-02-18T15:01:45;13.00;;;6.45;;
29984;SDS011;17387;42.690;23.328;2023-02-18T15:04:11;10.85;;;6.38;;
29984;SDS011;17387;42.690;23.328;2023-02-18T15:06:38;10.50;;;5.82;;
29984;SDS011;17387;42.690;23.328;2023-02-18T15:11:38;13.77;;;6.63;;
29984;SDS011;17387;42.690;23.328;2023-02-18T15:14:18;11.15;;;5.97;;
29984;SDS011;17387;42.690;23.328;2023-02-18T15:16:44;11.02;;;5.90;;
29984;SDS011;17387;42.690;23.328;2023-02-18T15:19:12;11.35;;;5.95;;
29984;SDS011;17387;42.690;23.328;2023-02-18T15:21:38;13.40;;;6.47;;
29984;SDS011;17387;42.690;23.328;2023-02-18T15:24:08;10.77;;;6.40;;
29984;SDS011;17387;42.690;23.328;2023-02-18T15:26:50;12.70;;;6.03;;
29984;SDS011;17387;42.690;23.328;2023-02-18T15:29:25;14.23;;;6.25;;
29984;SDS011;17387;42.690;23.328;2023-02-18T15:31:52;11.55;;;6.20;;
29984;SDS011;17387;42.690;23.328;2023-02-18T15:37:03;11.75;;;6.38;;
29984;SDS011;17387;42.690;23.328;2023-02-18T15:39:28;10.35;;;5.65;;
29984;SDS011;17387;42.690;23.328;2023-02-18T15:41:55;10.63;;;6.65;;
29984;SDS011;17387;42.690;23.328;2023-02-18T15:44:22;14.60;;;6.80;;
29984;SDS011;17387;42.690;23.328;2023-02-18T15:46:48;13.73;;;7.28;;
29984;SDS011;17387;42.690;23.328;2023-02-18T15:49:14;11.90;;;6.03;;
29984;SDS011;17387;42.690;23.328;2023-02-18T15:51:40;14.88;;;7.25;;
29984;SDS011;17387;42.690;23.328;2023-02-18T15:54:11;14.02;;;6.95;;
29984;SDS011;17387;42.690;23.328;2023-02-18T15:56:39;15.05;;;6.57;;
29984;SDS011;17387;42.690;23.328;2023-02-18T15:59:14;17.50;;;7.53;;
29984;SDS011;17387;42.690;23.328;2023-02-18T16:01:41;17.35;;;6.70;;
29984;SDS011;17387;42.690;23.328;2023-02-18T16:04:07;15.57;;;7.15;;
29984;SDS011;17387;42.690;23.328;2023-02-18T16:06:36;15.98;;;8.10;;
29984;SDS011;17387;42.690;23.328;2023-02-18T16:11:37;17.83;;;7.57;;
29984;SDS011;17387;42.690;23.328;2023-02-18T16:14:03;16.05;;;6.85;;
29984;SDS011;17387;42.690;23.328;2023-02-18T16:16:31;12.50;;;6.05;;
29984;SDS011;17387;42.690;23.328;2023-02-18T16:18:59;12.35;;;6.85;;
29984;SDS011;17387;42.690;23.328;2023-02-18T16:21:29;14.25;;;6.80;;
29984;SDS011;17387;42.690;23.328;2023-02-18T16:23:56;13.93;;;7.60;;
29984;SDS011;17387;42.690;23.328;2023-02-18T16:26:28;12.70;;;7.00;;
29984;SDS011;17387;42.690;23.328;2023-02-18T16:28:58;16.77;;;8.38;;
29984;SDS011;17387;42.690;23.328;2023-02-18T16:31:24;17.88;;;8.35;;
29984;SDS011;17387;42.690;23.328;2023-02-18T16:33:49;17.48;;;8.27;;
29984;SDS011;17387;42.690;23.328;2023-02-18T16:36:15;17.98;;;8.90;;
29984;SDS011;17387;42.690;23.328;2023-02-18T16:38:41;20.73;;;9.25;;
29984;SDS011;17387;42.690;23.328;2023-02-18T16:41:07;16.27;;;8.82;;
29984;SDS011;17387;42.690;23.328;2023-02-18T16:43:33;19.67;;;9.68;;
29984;SDS011;17387;42.690;23.328;2023-02-18T16:46:04;20.88;;;10.13;;
29984;SDS011;17387;42.690;23.328;2023-02-18T16:48:34;16.20;;;8.75;;
29984;SDS011;17387;42.690;23.328;2023-02-18T16:51:05;17.73;;;8.48;;
29984;SDS011;17387;42.690;23.328;2023-02-18T16:53:30;19.20;;;9.18;;
29984;SDS011;17387;42.690;23.328;2023-02-18T16:55:56;18.90;;;9.18;;
29984;SDS011;17387;42.690;23.328;2023-02-18T16:58:21;15.18;;;8.60;;
29984;SDS011;17387;42.690;23.328;2023-02-18T17:00:46;14.52;;;7.78;;
29984;SDS011;17387;42.690;23.328;2023-02-18T17:03:12;15.73;;;8.13;;
29984;SDS011;17387;42.690;23.328;2023-02-18T17:05:38;15.52;;;8.10;;